createdAt,value
2018-08-23T00:01:47.422Z,19.60
2018-08-23T00:04:57.317Z,19.70
2018-08-23T00:08:09.893Z,19.70
2018-08-23T00:11:25.230Z,19.70
2018-08-23T00:14:35.361Z,19.60
2018-08-23T00:17:46.477Z,19.60
2018-08-23T00:20:57.342Z,19.50
2018-08-23T00:24:10.832Z,19.50
2018-08-23T00:27:26.547Z,19.40
2018-08-23T00:30:37.497Z,19.40
2018-08-23T00:33:47.887Z,19.40
2018-08-23T00:36:58.964Z,19.40
2018-08-23T00:40:14.887Z,19.40
2018-08-23T00:43:25.090Z,19.40
2018-08-23T00:46:36.472Z,19.40
2018-08-23T00:49:53.993Z,19.40
2018-08-23T00:53:04.431Z,19.40
2018-08-23T00:56:20.928Z,19.40
2018-08-23T00:59:31.186Z,19.40
2018-08-23T01:02:42.012Z,19.40
2018-08-23T01:05:51.851Z,19.40
2018-08-23T01:09:02.338Z,19.30
2018-08-23T01:12:13.009Z,19.30
2018-08-23T01:15:23.110Z,19.30
2018-08-23T01:18:33.522Z,19.30
2018-08-23T01:21:47.324Z,19.20
2018-08-23T01:25:00.179Z,19.20
2018-08-23T01:28:10.756Z,19.20
2018-08-23T01:31:28.361Z,19.30
2018-08-23T01:34:38.156Z,19.20
2018-08-23T01:37:48.347Z,19.20
2018-08-23T01:41:03.794Z,19.20
2018-08-23T01:44:14.282Z,19.20
2018-08-23T01:47:24.264Z,19.20
2018-08-23T01:50:34.136Z,19.20
2018-08-23T01:53:44.018Z,19.20
2018-08-23T01:56:54.178Z,19.20
2018-08-23T02:00:05.152Z,19.20
2018-08-23T02:03:15.241Z,19.10
2018-08-23T02:06:30.899Z,19.20
2018-08-23T02:09:41.687Z,19.20
2018-08-23T02:12:53.345Z,19.20
2018-08-23T02:16:04.472Z,19.20
2018-08-23T02:19:14.374Z,19.20
2018-08-23T02:22:24.535Z,19.10
2018-08-23T02:25:34.493Z,19.10
2018-08-23T02:28:46.891Z,19.10
2018-08-23T02:31:57.577Z,19.00
2018-08-23T02:35:07.771Z,19.00
2018-08-23T02:38:18.293Z,19.00
2018-08-23T02:41:29.325Z,19.00
2018-08-23T02:44:39.459Z,19.00
2018-08-23T02:47:50.247Z,19.00
2018-08-23T02:51:00.807Z,19.00
2018-08-23T02:54:13.060Z,19.00
2018-08-23T02:57:23.606Z,19.00
2018-08-23T03:00:38.926Z,19.00
2018-08-23T03:04:01.920Z,19.00
2018-08-23T03:07:12.837Z,19.00
2018-08-23T03:10:23.862Z,18.90
2018-08-23T03:13:37.193Z,19.00
2018-08-23T03:17:23.738Z,19.00
2018-08-23T03:20:34.081Z,19.10
2018-08-23T03:23:46.121Z,19.10
2018-08-23T03:26:56.656Z,19.10
2018-08-23T03:30:08.166Z,19.00
2018-08-23T03:33:18.258Z,19.10
2018-08-23T03:36:28.233Z,19.10
2018-08-23T03:39:38.394Z,19.00
2018-08-23T03:42:49.446Z,19.00
2018-08-23T03:46:00.763Z,19.00
2018-08-23T03:49:11.531Z,19.00
2018-08-23T03:52:23.935Z,19.00
2018-08-23T03:55:34.659Z,19.00
2018-08-23T03:58:44.862Z,19.00
2018-08-23T04:01:55.513Z,19.00
2018-08-23T04:05:13.494Z,19.00
2018-08-23T04:08:24.336Z,19.00
2018-08-23T04:11:34.600Z,19.00
2018-08-23T04:14:44.973Z,18.90
2018-08-23T04:17:55.168Z,18.90
2018-08-23T04:21:05.022Z,18.90
2018-08-23T04:24:15.746Z,18.90
2018-08-23T04:27:26.108Z,18.90
2018-08-23T04:30:36.366Z,18.90
2018-08-23T04:33:46.511Z,18.90
2018-08-23T04:36:57.081Z,18.90
2018-08-23T04:40:07.739Z,18.90
2018-08-23T04:43:17.990Z,18.90
2018-08-23T04:46:31.858Z,19.00
2018-08-23T04:49:42.042Z,19.00
2018-08-23T04:52:52.050Z,19.10
2018-08-23T04:56:02.123Z,19.10
2018-08-23T04:59:12.281Z,19.10
2018-08-23T05:02:22.231Z,19.10
2018-08-23T05:05:32.086Z,19.10
2018-08-23T05:08:42.801Z,19.20
2018-08-23T05:11:53.817Z,19.20
2018-08-23T05:15:04.498Z,19.30
2018-08-23T05:18:15.188Z,19.40
2018-08-23T05:21:25.949Z,19.40
2018-08-23T05:24:36.034Z,19.50
2018-08-23T05:28:03.194Z,19.60
2018-08-23T05:31:13.288Z,19.60
2018-08-23T05:34:24.145Z,19.70
2018-08-23T05:37:34.339Z,19.80
2018-08-23T05:40:49.002Z,19.90
2018-08-23T05:44:07.771Z,20.10
2018-08-23T05:47:18.659Z,20.20
2018-08-23T05:50:33.624Z,20.30
2018-08-23T05:53:49.416Z,20.50
2018-08-23T05:57:00.171Z,20.60
2018-08-23T06:00:10.490Z,20.80
2018-08-23T06:03:21.050Z,20.90
2018-08-23T06:06:31.139Z,21.00
2018-08-23T06:09:42.329Z,21.20
2018-08-23T06:12:53.264Z,21.30
2018-08-23T06:16:03.662Z,21.40
2018-08-23T06:19:15.441Z,21.60
2018-08-23T06:22:25.556Z,21.70
2018-08-23T06:25:36.366Z,21.90
2018-08-23T06:28:46.062Z,22.00
2018-08-23T06:32:10.639Z,22.10
2018-08-23T06:35:20.247Z,22.30
2018-08-23T06:38:31.145Z,22.50
2018-08-23T06:41:41.469Z,22.60
2018-08-23T06:44:53.324Z,22.80
2018-08-23T06:48:03.642Z,23.00
2018-08-23T06:51:14.242Z,23.20
2018-08-23T06:54:24.155Z,23.30
2018-08-23T06:57:41.232Z,23.60
2018-08-23T07:00:51.468Z,23.60
2018-08-23T07:04:05.002Z,23.70
2018-08-23T07:07:20.101Z,23.90
2018-08-23T07:10:30.479Z,24.10
2018-08-23T07:13:40.493Z,24.30
2018-08-23T07:16:50.803Z,24.50
2018-08-23T07:20:04.018Z,24.60
2018-08-23T07:23:25.808Z,24.80
2018-08-23T07:26:35.823Z,25.10
2018-08-23T07:29:50.316Z,25.20
2018-08-23T07:33:00.913Z,25.40
2018-08-23T07:36:30.825Z,25.60
2018-08-23T07:39:45.111Z,25.70
2018-08-23T07:42:55.515Z,25.80
2018-08-23T07:46:05.625Z,26.00
2018-08-23T07:49:15.819Z,26.20
2018-08-23T07:52:27.185Z,26.30
2018-08-23T07:55:37.756Z,26.60
2018-08-23T07:58:49.509Z,26.70
2018-08-23T08:01:59.856Z,26.70
2018-08-23T08:05:10.006Z,26.90
2018-08-23T08:08:19.988Z,27.10
2018-08-23T08:11:39.629Z,27.20
2018-08-23T08:14:50.115Z,27.40
2018-08-23T08:18:07.862Z,27.60
2018-08-23T08:21:18.564Z,27.70
2018-08-23T08:24:29.133Z,27.90
2018-08-23T08:27:39.802Z,28.00
2018-08-23T08:30:56.119Z,28.10
2018-08-23T08:34:06.967Z,28.30
2018-08-23T08:37:17.282Z,28.50
2018-08-23T08:40:27.210Z,28.50
2018-08-23T08:43:36.864Z,28.60
2018-08-23T08:46:46.846Z,28.80
2018-08-23T08:49:56.834Z,29.00
2018-08-23T08:53:06.993Z,29.00
2018-08-23T08:56:21.747Z,29.10
2018-08-23T08:59:33.019Z,29.30
2018-08-23T09:02:43.170Z,29.40
2018-08-23T09:05:53.369Z,29.40
2018-08-23T09:09:41.668Z,29.60
2018-08-23T09:12:51.844Z,29.80
2018-08-23T09:16:06.709Z,29.90
2018-08-23T09:19:17.249Z,30.00
2018-08-23T09:22:27.180Z,30.00
2018-08-23T09:25:43.367Z,30.00
2018-08-23T09:28:53.008Z,30.20
2018-08-23T09:32:12.566Z,30.30
2018-08-23T09:35:27.356Z,30.40
2018-08-23T09:38:38.002Z,30.60
2018-08-23T09:41:48.317Z,30.80
2018-08-23T09:45:04.814Z,30.80
2018-08-23T09:48:15.165Z,30.80
2018-08-23T09:51:30.176Z,30.90
2018-08-23T09:54:40.079Z,30.90
2018-08-23T09:57:50.263Z,31.00
2018-08-23T10:01:05.686Z,30.90
2018-08-23T10:04:21.061Z,31.20
2018-08-23T10:07:36.690Z,31.30
2018-08-23T10:10:52.327Z,31.20
2018-08-23T10:14:08.032Z,31.40
2018-08-23T10:17:23.374Z,31.50
2018-08-23T10:20:44.723Z,31.60
2018-08-23T10:24:04.665Z,31.70
2018-08-23T10:27:14.608Z,31.90
2018-08-23T10:30:24.611Z,31.80
2018-08-23T10:33:34.852Z,31.90
2018-08-23T10:36:44.642Z,31.90
2018-08-23T10:39:55.108Z,31.90
2018-08-23T10:43:05.702Z,32.00
2018-08-23T10:46:15.344Z,32.20
2018-08-23T10:49:26.320Z,32.30
2018-08-23T10:52:36.348Z,32.30
2018-08-23T10:55:46.754Z,32.20
2018-08-23T10:58:57.273Z,32.30
2018-08-23T11:02:07.143Z,32.40
2018-08-23T11:05:17.023Z,32.50
2018-08-23T11:08:31.714Z,32.50
2018-08-23T11:11:41.812Z,32.30
2018-08-23T11:14:51.657Z,32.60
2018-08-23T11:18:07.271Z,32.70
2018-08-23T11:21:18.010Z,32.70
2018-08-23T11:24:28.213Z,32.70
2018-08-23T11:27:38.416Z,32.50
2018-08-23T11:30:48.092Z,32.50
2018-08-23T11:33:58.323Z,32.60
2018-08-23T11:37:09.021Z,32.70
2018-08-23T11:40:18.654Z,32.80
2018-08-23T11:43:28.610Z,33.00
2018-08-23T11:46:38.646Z,32.90
2018-08-23T11:49:48.770Z,32.60
2018-08-23T11:52:58.861Z,32.50
2018-08-23T11:56:08.813Z,32.50
2018-08-23T11:59:18.709Z,32.50
2018-08-23T12:02:29.563Z,32.30
2018-08-23T12:05:39.824Z,32.10
2018-08-23T12:08:49.782Z,32.00
2018-08-23T12:12:00.555Z,31.80
2018-08-23T12:15:10.911Z,31.70
2018-08-23T12:18:21.262Z,31.70
2018-08-23T12:21:31.080Z,31.70
2018-08-23T12:24:40.852Z,31.60
2018-08-23T12:27:59.439Z,31.40
2018-08-23T12:31:09.460Z,31.40
2018-08-23T12:34:30.192Z,31.40
2018-08-23T12:37:45.716Z,31.40
2018-08-23T12:41:01.708Z,31.30
2018-08-23T12:44:12.248Z,31.50
2018-08-23T12:47:22.729Z,31.90
2018-08-23T12:50:32.848Z,32.10
2018-08-23T12:53:42.987Z,32.10
2018-08-23T12:56:53.120Z,31.90
2018-08-23T13:00:02.817Z,31.80
2018-08-23T13:03:12.948Z,32.00
2018-08-23T13:06:22.924Z,32.00
2018-08-23T13:09:32.570Z,31.90
2018-08-23T13:12:42.383Z,31.80
2018-08-23T13:15:52.141Z,31.90
2018-08-23T13:19:02.675Z,32.10
2018-08-23T13:22:17.470Z,32.40
2018-08-23T13:25:27.914Z,32.60
2018-08-23T13:28:37.712Z,32.70
2018-08-23T13:31:47.398Z,32.50
2018-08-23T13:34:57.628Z,32.30
2018-08-23T13:38:07.915Z,32.40
2018-08-23T13:41:17.718Z,32.70
2018-08-23T13:44:27.644Z,32.90
2018-08-23T13:47:37.458Z,32.80
2018-08-23T13:50:47.494Z,32.30
2018-08-23T13:53:57.631Z,32.20
2018-08-23T13:57:07.454Z,31.80
2018-08-23T14:00:22.739Z,31.40
2018-08-23T14:03:33.266Z,30.90
2018-08-23T14:06:43.309Z,30.60
2018-08-23T14:09:53.198Z,30.00
2018-08-23T14:13:03.011Z,29.70
2018-08-23T14:16:12.685Z,29.40
2018-08-23T14:19:23.064Z,29.00
2018-08-23T14:22:33.291Z,28.90
2018-08-23T14:25:42.884Z,28.70
2018-08-23T14:28:52.986Z,28.50
2018-08-23T14:32:02.943Z,28.30
2018-08-23T14:35:12.619Z,28.20
2018-08-23T14:38:22.468Z,28.10
2018-08-23T14:41:33.107Z,27.90
2018-08-23T14:44:43.034Z,27.80
2018-08-23T14:47:58.442Z,27.70
2018-08-23T14:51:08.277Z,27.80
2018-08-23T14:54:23.833Z,27.50
2018-08-23T14:57:34.887Z,27.10
2018-08-23T15:00:44.661Z,27.00
2018-08-23T15:03:54.368Z,26.80
2018-08-23T15:07:04.209Z,26.60
2018-08-23T15:10:14.748Z,26.50
2018-08-23T15:13:24.554Z,25.90
2018-08-23T15:16:35.002Z,25.90
2018-08-23T15:19:45.523Z,25.90
2018-08-23T15:22:55.353Z,26.00
2018-08-23T15:26:05.033Z,26.00
2018-08-23T15:29:15.102Z,26.00
2018-08-23T15:32:25.586Z,26.10
2018-08-23T15:35:35.661Z,26.00
2018-08-23T15:38:45.612Z,26.10
2018-08-23T15:41:55.395Z,26.00
2018-08-23T15:45:05.154Z,26.00
2018-08-23T15:48:15.155Z,26.00
2018-08-23T15:51:25.433Z,26.10
2018-08-23T15:54:35.586Z,25.90
2018-08-23T15:57:45.643Z,25.80
2018-08-23T16:00:56.232Z,25.80
2018-08-23T16:04:05.960Z,26.10
2018-08-23T16:07:16.031Z,26.10
2018-08-23T16:10:26.018Z,26.20
2018-08-23T16:13:35.948Z,26.20
2018-08-23T16:16:51.350Z,26.00
2018-08-23T16:20:07.591Z,26.20
2018-08-23T16:23:17.508Z,26.10
2018-08-23T16:26:33.042Z,26.20
2018-08-23T16:29:47.107Z,26.10
2018-08-23T16:32:56.786Z,26.20
2018-08-23T16:36:06.999Z,26.20
2018-08-23T16:39:17.654Z,26.20
2018-08-23T16:42:27.311Z,26.10
2018-08-23T16:45:37.100Z,26.10
2018-08-23T16:48:47.155Z,26.10
2018-08-23T16:51:57.181Z,26.10
2018-08-23T16:55:07.175Z,26.10
2018-08-23T16:58:17.571Z,26.10
2018-08-23T17:01:27.470Z,26.10
2018-08-23T17:04:44.477Z,26.10
2018-08-23T17:07:54.527Z,26.10
2018-08-23T17:11:04.986Z,26.20
2018-08-23T17:14:15.291Z,26.30
2018-08-23T17:17:30.807Z,26.20
2018-08-23T17:20:41.219Z,26.20
2018-08-23T17:23:51.007Z,26.30
2018-08-23T17:27:01.128Z,26.20
2018-08-23T17:30:11.089Z,26.10
2018-08-23T17:33:20.926Z,26.00
2018-08-23T17:36:31.488Z,26.10
2018-08-23T17:39:41.376Z,26.20
2018-08-23T17:42:51.623Z,26.10
2018-08-23T17:46:01.640Z,25.90
2018-08-23T17:49:11.757Z,25.90
2018-08-23T17:52:22.430Z,25.80
2018-08-23T17:55:32.712Z,25.80
2018-08-23T17:58:42.963Z,25.70
2018-08-23T18:01:53.115Z,25.70
2018-08-23T18:05:02.880Z,25.50
2018-08-23T18:08:12.767Z,25.50
2018-08-23T18:11:22.639Z,25.50
2018-08-23T18:14:32.434Z,25.40
2018-08-23T18:17:42.472Z,25.40
2018-08-23T18:20:52.536Z,25.40
2018-08-23T18:24:05.024Z,25.30
2018-08-23T18:27:14.909Z,25.20
2018-08-23T18:30:25.468Z,25.20
2018-08-23T18:33:35.982Z,25.20
2018-08-23T18:36:45.743Z,25.10
2018-08-23T18:39:55.900Z,25.00
2018-08-23T18:43:06.008Z,25.00
2018-08-23T18:46:15.745Z,24.90
2018-08-23T18:49:25.855Z,24.90
2018-08-23T18:52:35.526Z,24.80
2018-08-23T18:55:45.368Z,24.70
2018-08-23T18:58:56.382Z,24.70
2018-08-23T19:02:06.440Z,24.60
2018-08-23T19:05:17.069Z,24.60
2018-08-23T19:08:27.398Z,24.50
2018-08-23T19:11:37.671Z,24.60
2018-08-23T19:14:47.340Z,24.60
2018-08-23T19:17:57.303Z,24.60
2018-08-23T19:21:07.695Z,24.50
2018-08-23T19:24:18.442Z,24.60
2018-08-23T19:27:28.729Z,24.50
2018-08-23T19:30:39.367Z,24.40
2018-08-23T19:33:49.690Z,24.30
2018-08-23T19:36:59.708Z,24.20
2018-08-23T19:40:09.631Z,24.30
2018-08-23T19:43:20.798Z,24.30
2018-08-23T19:47:34.229Z,24.30
2018-08-23T19:50:43.939Z,24.20
2018-08-23T19:53:54.007Z,24.10
2018-08-23T19:57:04.192Z,24.10
2018-08-23T20:00:14.319Z,24.10
2018-08-23T20:03:24.324Z,24.10
2018-08-23T20:06:34.723Z,24.10
2018-08-23T20:09:45.157Z,24.10
2018-08-23T20:12:55.685Z,24.10
2018-08-23T20:16:05.860Z,24.00
2018-08-23T20:19:15.990Z,24.00
2018-08-23T20:22:27.790Z,24.00
2018-08-23T20:25:37.904Z,23.90
2018-08-23T20:28:49.574Z,23.90
2018-08-23T20:32:00.090Z,23.90
2018-08-23T20:35:10.044Z,23.90
2018-08-23T20:38:19.672Z,23.90
2018-08-23T20:41:29.506Z,23.90
2018-08-23T20:44:39.376Z,23.80
2018-08-23T20:47:49.406Z,23.80
2018-08-23T20:51:00.211Z,23.80
2018-08-23T20:54:10.160Z,23.70
2018-08-23T20:57:19.881Z,23.70
2018-08-23T21:00:29.837Z,23.60
2018-08-23T21:03:39.814Z,23.50
2018-08-23T21:06:49.892Z,23.50
2018-08-23T21:09:59.744Z,23.30
2018-08-23T21:13:10.008Z,23.30
2018-08-23T21:16:20.488Z,23.30
2018-08-23T21:19:30.352Z,23.20
2018-08-23T21:22:40.713Z,23.20
2018-08-23T21:25:50.745Z,23.10
2018-08-23T21:29:00.855Z,23.00
2018-08-23T21:32:10.559Z,23.00
2018-08-23T21:35:20.412Z,23.00
2018-08-23T21:38:30.274Z,23.00
2018-08-23T21:41:40.262Z,23.10
2018-08-23T21:44:50.194Z,23.00
2018-08-23T21:48:00.323Z,23.10
2018-08-23T21:51:10.348Z,23.10
2018-08-23T21:54:20.396Z,23.10
2018-08-23T21:57:30.424Z,23.10
2018-08-23T22:00:45.784Z,23.00
2018-08-23T22:03:56.261Z,23.00
2018-08-23T22:07:06.142Z,22.90
2018-08-23T22:10:15.994Z,22.90
2018-08-23T22:13:25.822Z,22.90
2018-08-23T22:16:36.123Z,22.90
2018-08-23T22:19:46.262Z,22.90
2018-08-23T22:22:57.054Z,22.80
2018-08-23T22:26:06.626Z,22.80
2018-08-23T22:29:17.246Z,22.80
2018-08-23T22:32:27.010Z,22.70
2018-08-23T22:35:36.792Z,22.60
2018-08-23T22:38:47.133Z,22.60
2018-08-23T22:41:57.060Z,22.50
2018-08-23T22:45:06.966Z,22.50
2018-08-23T22:48:16.830Z,22.50
2018-08-23T22:51:26.587Z,22.40
2018-08-23T22:54:36.501Z,22.40
2018-08-23T22:57:46.692Z,22.30
2018-08-23T23:00:56.412Z,22.40
2018-08-23T23:04:11.380Z,22.30
2018-08-23T23:07:21.823Z,22.20
2018-08-23T23:10:31.694Z,22.30
2018-08-23T23:13:41.561Z,22.30
2018-08-23T23:16:55.493Z,22.30
2018-08-23T23:20:06.074Z,22.30
2018-08-23T23:23:16.526Z,22.20
2018-08-23T23:26:26.909Z,22.20
2018-08-23T23:29:39.181Z,22.20
2018-08-23T23:32:50.699Z,22.20
2018-08-23T23:36:01.592Z,22.20
2018-08-23T23:39:12.063Z,22.10
2018-08-23T23:42:22.499Z,22.10
2018-08-23T23:45:32.943Z,22.10
2018-08-23T23:48:43.160Z,22.10
2018-08-23T23:51:53.157Z,22.10
2018-08-23T23:55:03.788Z,22.10
2018-08-23T23:58:14.215Z,22.10
